Latest Weather Observations for Melbourne (Olympic Park)

IDV60801

Issued at 12:31 pm EDT Monday 2 February 2015 (issued every 30 minutes, with the page automatically refreshed every 10 minutes)

About weather observations | Map of weather stations | Latest weather observations for VIC | Other Formats
Station Details ID: 086338 Name: MELBOURNE (OLYMPIC PARK) Lat: -37.83 Lon: 144.98 Height: 7.53 m
Data from the previous 72 hours. | See also: Recent months at Melbourne (Olympic Park)
Date/Time
EDT
Temp
°C
App
Temp
°C
Dew
Point
Rel
Hum
%
Delta-T
°C
Wind Press
QNH
hPa
Press
MSL
hPa
Rain
since 9 am
mm
Dir
 
Spd
km/h
Gust
km/h
Spd
kts
Gust
kts
02/12:30pm 19.3 18.0 12.6 65 3.7 SSW 11 19 6 10 1020.6 1020.6 0.0
02/12:00pm 18.8 16.5 11.6 63 3.9 S 15 26 8 14 1020.6 1020.6 0.0
02/11:30am 18.6 16.6 11.4 63 3.9 S 13 20 7 11 1020.6 1020.6 0.0
02/11:00am 18.6 16.8 12.1 66 3.6 S 13 20 7 11 1020.3 1020.3 0.0
02/10:30am 18.2 16.0 12.0 67 3.4 SSW 15 24 8 13 1020.0 1020.0 0.0
02/10:00am 17.9 16.3 11.7 67 3.4 S 11 20 6 11 1019.8 1019.8 0.0
02/09:30am 17.5 15.9 11.5 68 3.3 SSW 11 19 6 10 1019.6 1019.6 0.0
02/09:00am 17.3 16.3 12.4 73 2.7 S 9 19 5 10 1019.4 1019.4 3.8
02/08:30am 16.5 16.0 12.5 77 2.2 S 7 19 4 10 1019.2 1019.2 3.8
02/08:00am 16.5 16.3 13.0 80 1.9 S 6 13 3 7 1018.9 1018.9 3.8
02/07:30am 16.3 15.4 12.7 79 2.0 S 9 19 5 10 1018.2 1018.2 3.8
02/07:00am 16.1 15.2 12.7 80 1.9 S 9 17 5 9 1018.0 1018.0 3.8
02/06:30am 16.0 15.1 12.7 81 1.8 S 9 17 5 9 1017.7 1017.7 3.8
02/06:00am 15.7 15.9 13.0 84 1.5 S 4 9 2 5 1017.3 1017.3 3.8
02/05:30am 16.3 15.7 12.3 77 2.2 S 7 15 4 8 1017.2 1017.2 3.8
02/05:00am 16.2 15.2 12.2 77 2.2 S 9 17 5 9 1016.9 1016.9 3.8
02/04:30am 16.3 15.8 12.1 76 2.3 S 6 11 3 6 1016.6 1016.6 3.8
02/04:00am 16.4 14.9 12.0 75 2.4 S 11 20 6 11 1016.6 1016.6 3.8
02/03:30am 16.4 15.3 11.8 74 2.5 S 9 20 5 11 1016.7 1016.7 3.8
02/03:00am 16.4 15.3 11.8 74 2.5 S 9 19 5 10 1016.8 1016.8 3.8
02/02:30am 16.3 15.1 11.5 73 2.6 S 9 20 5 11 1016.9 1016.9 3.8
02/02:00am 16.4 13.9 11.1 71 2.8 S 15 30 8 16 1016.8 1016.8 3.8
02/01:30am 16.4 14.4 11.6 73 2.6 S 13 24 7 13 1016.9 1016.9 3.8
02/01:00am 16.4 14.8 11.6 73 2.6 S 11 28 6 15 1017.1 1017.1 3.8
02/12:30am 16.3 13.5 11.2 72 2.7 S 17 28 9 15 1017.2 1017.2 3.8
02/12:00am 16.3 13.9 11.5 73 2.6 S 15 28 8 15 1017.2 1017.2 3.8
 
Date/Time
EDT
Temp
°C
App
Temp
°C
Dew
Point
Rel
Hum
%
Delta-T
°C
Wind Press
QNH
hPa
Press
MSL
hPa
Rain
since 9 am
mm
Dir
 
Spd
km/h
Gust
km/h
Spd
kts
Gust
kts
01/11:30pm 16.3 14.3 11.5 73 2.6 S 13 24 7 13 1017.0 1017.0 3.8
01/11:00pm 16.5 14.5 11.6 73 2.7 S 13 30 7 16 1016.9 1016.9 3.8
01/10:30pm 16.5 14.2 11.6 73 2.7 S 15 30 8 16 1016.6 1016.6 3.8
01/10:00pm 16.5 13.4 11.6 73 2.7 S 19 30 10 16 1016.4 1016.4 3.8
01/09:30pm 16.7 14.0 11.8 73 2.7 S 17 32 9 17 1016.0 1016.0 3.8
01/09:00pm 16.9 14.4 12.2 74 2.6 S 17 35 9 19 1015.8 1015.8 3.8
01/08:30pm 17.0 15.3 12.5 75 2.5 S 13 30 7 16 1015.4 1015.4 3.8
01/08:00pm 17.3 14.9 12.6 74 2.6 S 17 32 9 17 1015.1 1015.1 3.8
01/07:30pm 17.3 14.5 12.6 74 2.6 SSW 19 32 10 17 1014.8 1014.8 3.8
01/07:00pm 17.5 15.1 12.8 74 2.6 SSW 17 33 9 18 1014.3 1014.3 3.8
01/06:30pm 17.8 16.1 13.5 76 2.4 S 15 28 8 15 1013.9 1013.9 3.8
01/06:00pm 17.7 15.0 13.4 76 2.4 SSW 20 41 11 22 1013.8 1013.8 3.8
01/05:30pm 17.7 14.6 13.4 76 2.4 SSW 22 39 12 21 1013.6 1013.6 3.8
01/05:00pm 17.8 15.2 13.9 78 2.2 SSW 20 39 11 21 1013.6 1013.6 3.8
01/04:30pm 18.0 15.5 14.1 78 2.2 SSW 20 35 11 19 1013.5 1013.5 3.8
01/04:00pm 18.3 15.9 14.4 78 2.2 SSW 20 33 11 18 1013.3 1013.3 3.8
01/03:30pm 18.1 15.8 14.2 78 2.2 SSW 19 32 10 17 1013.4 1013.4 3.8
01/03:00pm 18.1 15.7 14.4 79 2.1 SSW 20 37 11 20 1013.5 1013.5 3.8
01/02:30pm 18.1 15.9 15.0 82 1.8 SSW 20 35 11 19 1013.4 1013.4 3.8
01/02:00pm 18.0 15.8 14.5 80 2.0 SSW 19 32 10 17 1013.5 1013.5 3.8
01/01:30pm 18.6 17.2 15.5 82 1.8 SSW 17 32 9 17 1013.4 1013.4 3.8
01/01:00pm 17.2 16.4 15.0 87 1.3 SSW 13 28 7 15 1013.4 1013.4 3.8
01/12:30pm 17.1 15.3 14.4 84 1.5 SSW 17 30 9 16 1013.5 1013.5 3.4
01/12:00pm 16.1 15.8 15.5 96 0.3 SSW 11 19 6 10 1013.6 1013.6 3.4
01/11:30am 15.8 15.4 15.2 96 0.3 SW 11 20 6 11 1013.7 1013.7 2.4
01/11:00am 15.5 15.8 14.9 96 0.3 WSW 7 17 4 9 1013.7 1013.7 2.0
01/10:30am 15.1 15.2 14.5 96 0.3 SW 7 17 4 9 1013.6 1013.6 1.6
01/10:00am 15.1 14.8 14.3 95 0.5 SW 9 20 5 11 1013.4 1013.4 0.8
01/09:30am 14.3 13.4 13.7 96 0.3 W 11 19 6 10 1013.3 1013.3 0.8
01/09:00am 13.6 12.9 13.1 97 0.3 WNW 9 17 5 9 1013.2 1013.2 9.2
01/08:30am 13.4 12.6 12.8 96 0.3 WSW 9 15 5 8 1013.2 1013.2 7.8
01/08:00am 13.4 11.7 12.3 93 0.6 W 13 24 7 13 1012.9 1012.9 6.4
01/07:30am 13.3 12.3 12.4 94 0.5 W 9 19 5 10 1012.6 1012.6 6.0
01/07:00am 13.4 12.4 12.3 93 0.6 W 9 17 5 9 1012.4 1012.4 6.0
01/06:30am 13.6 11.5 12.3 92 0.7 W 15 20 8 11 1012.3 1012.3 5.8
01/06:00am 13.7 13.3 12.9 95 0.4 W 7 15 4 8 1012.1 1012.1 5.6
01/05:30am 13.8 13.0 12.9 94 0.5 W 9 20 5 11 1012.0 1012.0 5.4
01/05:00am 14.0 12.5 13.1 94 0.5 W 13 20 7 11 1012.1 1012.1 5.2
01/04:30am 14.1 13.3 12.8 92 0.7 W 9 24 5 13 1012.1 1012.1 5.0
01/04:00am 14.6 13.8 13.0 90 0.9 WSW 9 17 5 9 1012.2 1012.2 5.0
01/03:30am 14.4 14.0 13.0 91 0.8 W 7 15 4 8 1012.4 1012.4 5.0
01/03:00am 14.5 13.8 13.2 92 0.7 W 9 19 5 10 1012.3 1012.3 4.8
01/02:30am 14.3 15.0 13.5 95 0.4 S 2 9 1 5 1012.5 1012.5 4.8
01/02:00am 14.3 14.1 13.5 95 0.4 WSW 7 15 4 8 1012.7 1012.7 4.0
01/01:30am 14.3 14.1 13.5 95 0.4 W 7 15 4 8 1012.8 1012.8 3.2
01/01:00am 14.7 14.1 13.6 93 0.6 W 9 15 5 8 1013.0 1013.0 2.8
01/12:30am 15.1 14.1 13.5 90 0.9 SSW 11 20 6 11 1013.1 1013.1 2.6
01/12:00am 15.4 15.4 14.1 92 0.7 SW 7 13 4 7 1013.1 1013.1 2.4
 
Date/Time
EDT
Temp
°C
App
Temp
°C
Dew
Point
Rel
Hum
%
Delta-T
°C
Wind Press
QNH
hPa
Press
MSL
hPa
Rain
since 9 am
mm
Dir
 
Spd
km/h
Gust
km/h
Spd
kts
Gust
kts
31/11:30pm 15.2 13.5 13.7 91 0.8 SSW 15 24 8 13 1013.3 1013.3 2.4
31/11:00pm 15.2 14.0 13.9 92 0.7 S 13 26 7 14 1013.7 1013.7 2.2
31/10:30pm 15.9 14.7 13.9 88 1.1 SSW 13 20 7 11 1013.6 1013.6 1.6
31/10:00pm 16.1 14.8 13.6 85 1.4 S 13 24 7 13 1013.4 1013.4 1.0
31/09:30pm 16.0 14.8 14.0 88 1.1 SSW 13 24 7 13 1013.2 1013.2 1.0
31/09:00pm 15.5 14.0 14.2 92 0.7 S 15 28 8 15 1013.1 1013.1 1.0
31/08:30pm 15.7 15.0 14.4 92 0.7 S 11 28 6 15 1013.1 1013.1 0.4
31/08:00pm 17.0 14.7 12.9 77 2.3 SSW 17 30 9 16 1012.8 1012.8 0.0
31/07:30pm 17.5 14.8 12.8 74 2.6 SSW 19 33 10 18 1012.4 1012.4 0.0
31/07:00pm 18.1 15.7 12.8 71 3.0 SSW 17 32 9 17 1012.3 1012.3 0.0
31/06:30pm 18.0 15.2 12.7 71 3.0 SSW 19 30 10 16 1012.1 1012.1 0.0
31/06:00pm 18.4 16.0 12.6 69 3.2 SSW 17 30 9 16 1012.1 1012.1 0.0
31/05:30pm 18.7 15.8 12.9 69 3.3 SSW 20 35 11 19 1012.1 1012.1 0.0
31/05:00pm 19.1 16.1 11.9 63 4.0 SSW 19 35 10 19 1012.0 1012.0 0.0
31/04:30pm 19.2 16.1 11.7 62 4.1 SSW 19 35 10 19 1012.0 1012.0 0.0
31/04:00pm 19.2 15.7 11.0 59 4.5 SSW 20 33 11 18 1012.0 1012.0 0.0
31/03:30pm 19.7 16.5 12.0 61 4.3 SSW 20 35 11 19 1012.0 1012.0 0.0
31/03:00pm 19.5 16.3 12.0 62 4.2 SSW 20 30 11 16 1012.1 1012.1 0.0
31/02:30pm 19.1 16.1 11.9 63 4.0 SSW 19 35 10 19 1012.1 1012.1 0.0
31/02:00pm 18.8 15.2 11.9 64 3.8 SSW 22 37 12 20 1012.0 1012.0 0.0
31/01:30pm 19.0 15.6 11.1 60 4.3 SSW 20 39 11 21 1012.0 1012.0 0.0
31/01:00pm 19.1 15.7 11.2 60 4.3 S 20 35 11 19 1012.1 1012.1 0.0
31/12:30pm 19.8 16.9 12.3 62 4.2 S 19 35 10 19 1012.3 1012.3 0.0
31/12:00pm 18.8 16.4 12.5 67 3.5 SSW 17 30 9 16 1012.3 1012.3 0.0
31/11:30am 18.7 16.5 13.3 71 3.1 SSW 17 33 9 18 1012.2 1012.2 0.0
31/11:00am 18.5 17.0 13.1 71 3.0 SSW 13 28 7 15 1012.1 1012.1 0.0
31/10:30am 18.4 16.4 12.6 69 3.2 SSW 15 32 8 17 1012.0 1012.0 0.0
31/10:00am 18.1 15.7 12.5 70 3.1 S 17 30 9 16 1012.0 1012.0 0.0
31/09:30am 17.3 16.3 12.4 73 2.7 WSW 9 20 5 11 1011.9 1011.9 0.0
31/09:00am 16.8 15.7 11.9 73 2.7 W 9 19 5 10 1012.0 1012.0 0.0
31/08:30am 15.5 14.9 11.7 78 2.1 WSW 6 13 3 7 1012.1 1012.1 0.0
31/08:00am 14.9 14.0 11.3 79 1.9 W 7 13 4 7 1012.0 1012.0 0.0
31/07:30am 14.9 13.6 11.1 78 2.0 W 9 17 5 9 1012.0 1012.0 0.0
31/07:00am 14.5 12.7 10.9 79 1.9 W 11 20 6 11 1011.8 1011.8 0.0
31/06:30am 14.4 13.0 10.8 79 1.9 WSW 9 15 5 8 1011.7 1011.7 0.0
31/06:00am 14.5 13.0 10.7 78 2.0 WSW 9 17 5 9 1011.3 1011.3 0.0
31/05:30am 14.9 13.9 11.1 78 2.0 W 7 13 4 7 1011.1 1011.1 0.0
31/05:00am 14.9 13.5 10.9 77 2.1 W 9 20 5 11 1011.1 1011.1 0.0
31/04:30am 15.1 14.3 11.1 77 2.1 W 6 13 3 7 1011.2 1011.2 0.0
31/04:00am 15.2 14.9 11.6 79 1.9 WSW 4 7 2 4 1011.4 1011.4 0.0
31/03:30am 15.7 15.5 10.5 71 2.7 NE 2 7 1 4 1011.6 1011.6 0.0
31/03:00am 15.5 15.7 10.7 73 2.5 CALM 0 0 0 0 1011.8 1011.8 0.0
31/02:30am 15.5 14.9 10.5 72 2.6 WNW 4 9 2 5 1012.0 1012.0 0.0
31/02:00am 16.6 14.9 11.1 70 3.0 SW 11 26 6 14 1012.2 1012.2 0.0
31/01:30am 16.9 15.7 11.6 71 2.9 SSW 9 15 5 8 1012.4 1012.4 0.0
31/01:00am 16.8 15.4 10.9 68 3.2 SSW 9 15 5 8 1012.6 1012.6 0.0
31/12:30am 16.6 15.7 10.5 67 3.2 S 6 15 3 8 1012.6 1012.6 0.0
31/12:00am 16.4 14.7 9.8 65 3.5 S 9 17 5 9 1012.8 1012.8 0.0
 
Date/Time
EDT
Temp
°C
App
Temp
°C
Dew
Point
Rel
Hum
%
Delta-T
°C
Wind Press
QNH
hPa
Press
MSL
hPa
Rain
since 9 am
mm
Dir
 
Spd
km/h
Gust
km/h
Spd
kts
Gust
kts
30/11:30pm 16.4 14.6 9.6 64 3.5 S 9 15 5 8 1013.2 1013.2 0.0
30/11:00pm 16.4 14.9 9.3 63 3.7 SSE 7 15 4 8 1013.4 1013.4 0.0
30/10:30pm 16.2 14.6 8.7 61 3.8 SSE 7 13 4 7 1013.5 1013.5 0.0
30/10:00pm 16.3 14.1 8.0 58 4.2 SSE 9 15 5 8 1013.5 1013.5 0.0
30/09:30pm 16.8 14.3 8.0 56 4.5 S 11 17 6 9 1013.6 1013.6 0.0
30/09:00pm 17.0 13.8 6.8 51 5.0 SSE 13 24 7 13 1013.4 1013.4 0.0
30/08:30pm 17.3 14.6 7.4 52 5.0 S 11 26 6 14 1013.3 1013.3 0.0
30/08:00pm 17.8 14.8 7.8 52 5.1 SSE 13 24 7 13 1013.3 1013.3 0.0
30/07:30pm 18.6 15.3 8.0 50 5.4 S 15 30 8 16 1013.3 1013.3 0.0
30/07:00pm 18.8 15.2 8.5 51 5.3 S 17 35 9 19 1013.3 1013.3 0.0
30/06:30pm 19.0 15.5 8.6 51 5.4 S 17 28 9 15 1013.1 1013.1 0.0
30/06:00pm 18.5 15.2 7.9 50 5.4 S 15 28 8 15 1013.4 1013.4 0.0
30/05:30pm 18.3 14.3 6.8 47 5.7 SSW 17 30 9 16 1013.6 1013.6 0.0
30/05:00pm 18.8 14.8 6.6 45 6.1 S 17 35 9 19 1013.8 1013.8 0.0
30/04:30pm 19.4 15.8 8.4 49 5.7 S 17 33 9 18 1013.9 1013.9 0.0
30/04:00pm 20.8 17.4 9.1 47 6.2 SSW 17 30 9 16 1014.1 1014.1 0.0
30/03:30pm 20.1 16.3 7.5 44 6.5 S 17 35 9 19 1014.3 1014.3 0.0
30/03:00pm 19.5 15.4 8.8 50 5.6 SSW 20 35 11 19 1014.6 1014.6 0.0
30/02:30pm 20.0 15.9 7.7 45 6.3 S 19 33 10 18 1014.9 1014.9 0.0
30/02:00pm 19.5 15.3 7.3 45 6.2 S 19 33 10 18 1015.2 1015.2 0.0
30/01:30pm 19.3 15.1 7.4 46 6.1 SSW 19 32 10 17 1015.3 1015.3 0.0
30/01:00pm 19.3 14.5 7.4 46 6.0 SSW 22 35 12 19 1015.5 1015.5 0.0

Other Formats:

Comma delimited format used in spreadsheet applications
http://www.bom.gov.au/fwo/IDV60801/IDV60801.95936.axf

JavaScript Object Notation format (JSON) in row-major order
http://www.bom.gov.au/fwo/IDV60801/IDV60801.95936.json